createdAt,value
2018-07-23T05:54:20.302Z,18.20
2018-07-23T05:56:51.538Z,19.30
2018-07-23T05:59:33.864Z,19.30
2018-07-23T06:02:16.772Z,19.40
2018-07-23T06:05:03.296Z,19.50
2018-07-23T06:07:38.525Z,19.60
2018-07-23T06:10:10.099Z,19.60
2018-07-23T06:12:42.907Z,19.70
2018-07-23T06:15:15.528Z,19.80
2018-07-23T06:17:46.535Z,19.90
2018-07-23T06:20:19.719Z,19.90
2018-07-23T06:22:54.108Z,20.00
2018-07-23T06:25:24.820Z,20.10
2018-07-23T06:27:56.309Z,20.20
2018-07-23T06:30:27.434Z,20.30
2018-07-23T06:32:58.058Z,20.40
2018-07-23T06:35:34.205Z,20.40
2018-07-23T06:38:07.454Z,20.50
2018-07-23T06:40:41.367Z,20.60
2018-07-23T06:43:11.927Z,20.70
2018-07-23T06:45:54.210Z,20.80
2018-07-23T06:48:29.001Z,20.80
2018-07-23T06:50:58.208Z,20.90
2018-07-23T06:53:33.616Z,21.00
2018-07-23T06:56:06.158Z,21.10
2018-07-23T06:58:45.508Z,21.20
2018-07-23T07:01:26.033Z,21.20
2018-07-23T07:04:07.712Z,21.30
2018-07-23T07:06:46.400Z,21.40
2018-07-23T07:09:16.983Z,21.40
2018-07-23T07:11:46.848Z,21.50
2018-07-23T07:14:15.616Z,21.60
2018-07-23T07:16:44.790Z,21.60
2018-07-23T07:19:15.832Z,21.70
2018-07-23T07:21:45.769Z,21.70
2018-07-23T07:24:14.442Z,21.80
2018-07-23T07:26:45.639Z,21.90
2018-07-23T07:29:16.090Z,21.90
2018-07-23T07:31:46.171Z,22.00
2018-07-23T07:34:15.612Z,22.00
2018-07-23T07:36:44.458Z,22.10
2018-07-23T07:39:15.051Z,22.10
2018-07-23T07:41:45.418Z,22.20
2018-07-23T07:44:14.794Z,22.20
2018-07-23T07:46:43.645Z,22.20
2018-07-23T07:49:13.804Z,22.30
2018-07-23T07:51:43.236Z,22.40
2018-07-23T07:54:12.596Z,22.50
2018-07-23T07:56:47.132Z,22.50
2018-07-23T07:59:15.925Z,22.50
2018-07-23T08:01:46.222Z,22.50
2018-07-23T08:04:14.977Z,22.60
2018-07-23T08:06:44.468Z,22.60
2018-07-23T08:09:14.178Z,22.60
2018-07-23T08:11:43.949Z,22.60
2018-07-23T08:14:13.604Z,22.70
2018-07-23T08:16:43.835Z,22.80
2018-07-23T08:19:13.278Z,22.80
2018-07-23T08:21:42.166Z,22.90
2018-07-23T08:24:11.345Z,23.00
2018-07-23T08:26:42.138Z,23.10
2018-07-23T08:29:10.939Z,23.10
2018-07-23T08:31:40.485Z,23.10
2018-07-23T08:34:10.736Z,23.10
2018-07-23T08:36:40.234Z,23.20
2018-07-23T08:39:10.646Z,23.30
2018-07-23T08:41:40.275Z,23.30
2018-07-23T08:44:09.754Z,23.40
2018-07-23T08:46:38.341Z,23.50
2018-07-23T08:49:06.953Z,23.50
2018-07-23T08:51:35.475Z,23.60
2018-07-23T08:54:03.995Z,23.70
2018-07-23T08:56:32.522Z,23.70
2018-07-23T08:59:01.191Z,23.70
2018-07-23T09:01:29.688Z,23.70
2018-07-23T09:03:59.561Z,23.80
2018-07-23T09:06:28.062Z,23.80
2018-07-23T09:08:56.718Z,23.80
2018-07-23T09:11:25.908Z,23.90
2018-07-23T09:13:54.514Z,24.00
2018-07-23T09:16:23.017Z,24.00
2018-07-23T09:18:51.688Z,24.10
2018-07-23T09:21:20.205Z,24.10
2018-07-23T09:23:48.690Z,24.10
2018-07-23T09:26:17.340Z,24.20
2018-07-23T09:28:45.853Z,24.20
2018-07-23T09:31:14.454Z,24.30
2018-07-23T09:33:42.975Z,24.40
2018-07-23T09:36:11.582Z,24.40
2018-07-23T09:38:40.205Z,24.40
2018-07-23T09:41:09.267Z,24.50
2018-07-23T09:43:37.773Z,24.60
2018-07-23T09:46:07.312Z,24.60
2018-07-23T09:48:36.459Z,24.60
2018-07-23T09:51:04.993Z,24.70
2018-07-23T09:53:33.510Z,24.70
2018-07-23T09:56:02.008Z,24.80
2018-07-23T09:58:30.713Z,24.90
2018-07-23T10:01:04.470Z,24.90
2018-07-23T10:03:33.172Z,24.90
2018-07-23T10:06:01.614Z,25.00
2018-07-23T10:08:30.227Z,25.00
2018-07-23T10:10:58.849Z,25.00
2018-07-23T10:13:27.415Z,25.10
2018-07-23T10:15:55.961Z,25.20
2018-07-23T10:18:24.664Z,25.20
2018-07-23T10:20:53.157Z,25.30
2018-07-23T10:23:21.674Z,25.40
2018-07-23T10:25:50.463Z,25.40
2018-07-23T10:28:19.097Z,25.50
2018-07-23T10:30:47.634Z,25.60
2018-07-23T10:33:16.218Z,25.70
2018-07-23T10:35:44.952Z,25.70
2018-07-23T10:38:15.196Z,25.70
2018-07-23T10:40:45.114Z,25.80
2018-07-23T10:43:13.799Z,25.90
2018-07-23T10:45:43.688Z,25.90
2018-07-23T10:48:16.821Z,25.90
2018-07-23T10:50:46.114Z,26.00
2018-07-23T10:53:14.718Z,26.00
2018-07-23T10:55:43.317Z,26.10
2018-07-23T10:58:11.849Z,26.10
2018-07-23T11:00:40.368Z,26.10
2018-07-23T11:03:08.867Z,26.20
2018-07-23T11:05:37.412Z,26.30
2018-07-23T11:08:06.046Z,26.30
2018-07-23T11:13:02.934Z,26.50
2018-07-23T11:15:31.448Z,26.60
2018-07-23T11:18:00.022Z,26.60
2018-07-23T11:20:28.592Z,26.80
2018-07-23T11:23:00.611Z,26.80
2018-07-23T11:25:41.037Z,26.90
2018-07-23T11:28:01.254Z,27.00
2018-07-23T11:30:29.758Z,27.10
2018-07-23T11:32:58.396Z,27.20
2018-07-23T11:35:26.892Z,27.30
2018-07-23T11:37:57.284Z,27.30
2018-07-23T11:40:26.490Z,27.30
2018-07-23T11:42:55.734Z,27.40
2018-07-23T11:45:24.253Z,27.50
2018-07-23T11:47:52.838Z,27.70
2018-07-23T11:50:21.453Z,27.90
2018-07-23T11:52:50.030Z,28.20
2018-07-23T11:55:18.574Z,28.30
2018-07-23T11:57:47.158Z,28.40
2018-07-23T12:00:15.686Z,28.50
2018-07-23T12:02:44.220Z,28.60
2018-07-23T12:05:12.717Z,28.70
2018-07-23T12:07:41.864Z,28.90
2018-07-23T12:10:10.394Z,29.00
2018-07-23T12:15:12.871Z,29.00
2018-07-23T12:17:41.494Z,28.80
2018-07-23T12:20:10.215Z,28.70
2018-07-23T12:22:38.765Z,28.70
2018-07-23T12:25:07.313Z,28.80
2018-07-23T12:27:35.838Z,29.00
2018-07-23T12:30:04.580Z,29.30
2018-07-23T12:32:33.258Z,29.20
2018-07-23T12:35:01.639Z,29.30
2018-07-23T12:37:30.187Z,29.10
2018-07-23T12:39:58.699Z,29.10
2018-07-23T12:42:27.226Z,29.00
2018-07-23T12:44:55.737Z,29.10
2018-07-23T12:47:25.104Z,29.30
2018-07-23T12:49:53.617Z,29.50
2018-07-23T12:52:22.186Z,29.80
2018-07-23T12:54:50.719Z,30.00
2018-07-23T12:57:19.287Z,30.20
2018-07-23T12:59:47.805Z,30.30
2018-07-23T13:02:16.320Z,30.20
2018-07-23T13:04:44.838Z,30.00
2018-07-23T13:07:13.491Z,29.80
2018-07-23T13:09:42.857Z,29.70
2018-07-23T13:12:11.432Z,29.60
2018-07-23T13:14:39.912Z,29.70
2018-07-23T13:17:09.157Z,29.90
2018-07-23T13:19:37.695Z,30.00
2018-07-23T13:22:06.197Z,30.10
2018-07-23T13:24:34.718Z,30.20
2018-07-23T13:27:03.835Z,30.20
2018-07-23T13:29:32.361Z,30.40
2018-07-23T13:32:01.167Z,30.40
2018-07-23T13:34:29.712Z,30.60
2018-07-23T13:39:14.337Z,31.30
2018-07-23T13:44:24.871Z,32.00
2018-07-23T13:46:53.379Z,32.90
2018-07-23T13:49:21.922Z,34.30
2018-07-23T13:51:50.413Z,35.80
2018-07-23T13:54:18.943Z,41.10
2018-07-23T13:56:47.470Z,43.70
2018-07-23T13:59:16.083Z,44.30
2018-07-23T14:01:44.616Z,47.60
2018-07-23T14:04:13.170Z,50.70
2018-07-23T14:06:42.190Z,53.10
2018-07-23T14:09:12.026Z,55.60
2018-07-23T14:11:41.542Z,57.50
2018-07-23T14:14:10.118Z,59.60
2018-07-23T14:16:38.617Z,62.20
2018-07-23T14:19:07.223Z,64.00
2018-07-23T14:21:35.875Z,65.00
2018-07-23T14:24:04.319Z,65.90
2018-07-23T14:26:33.345Z,67.00
2018-07-23T14:29:01.963Z,68.10
2018-07-23T14:31:30.466Z,69.30
2018-07-23T14:33:58.985Z,70.20
2018-07-23T14:36:27.518Z,70.80
2018-07-23T14:38:56.100Z,71.30
2018-07-23T14:41:24.663Z,72.00
2018-07-23T14:43:53.186Z,72.10
2018-07-23T14:46:21.766Z,72.30
2018-07-23T14:48:50.285Z,72.50
2018-07-23T14:51:19.350Z,72.50
2018-07-23T14:53:47.857Z,72.50
2018-07-23T14:56:16.728Z,72.30
2018-07-23T14:58:45.230Z,72.50
2018-07-23T15:01:13.708Z,72.70
2018-07-23T15:03:42.996Z,73.00
2018-07-23T15:06:13.915Z,72.90
2018-07-23T15:08:42.438Z,69.70
2018-07-23T15:11:10.912Z,65.20
2018-07-23T15:13:39.458Z,62.30
2018-07-23T15:16:08.001Z,62.60
2018-07-23T15:18:36.605Z,63.30
2018-07-23T15:21:05.543Z,64.30
2018-07-23T15:23:34.683Z,64.90
2018-07-23T15:26:03.309Z,65.30
2018-07-23T15:28:33.237Z,66.00
2018-07-23T15:31:01.811Z,66.40
2018-07-23T15:36:00.310Z,66.00
2018-07-23T15:38:29.146Z,65.90
2018-07-23T15:40:57.907Z,66.10
2018-07-23T15:43:27.205Z,66.50
2018-07-23T15:45:56.287Z,66.70
2018-07-23T15:48:25.008Z,63.50
2018-07-23T15:50:53.868Z,61.20
2018-07-23T15:53:22.623Z,60.40
2018-07-23T15:55:51.345Z,59.70
2018-07-23T15:58:19.979Z,55.40
2018-07-23T16:00:48.782Z,55.30
2018-07-23T16:03:18.394Z,56.90
2018-07-23T16:05:47.023Z,58.50
2018-07-23T16:08:16.428Z,59.60
2018-07-23T16:10:45.055Z,60.80
2018-07-23T16:13:13.722Z,61.80
2018-07-23T16:15:42.303Z,62.50
2018-07-23T16:18:11.821Z,63.00
2018-07-23T16:20:40.437Z,63.50
2018-07-23T16:23:09.030Z,63.50
2018-07-23T16:25:37.607Z,63.40
2018-07-23T16:28:06.365Z,63.50
2018-07-23T16:30:34.972Z,63.40
2018-07-23T16:33:04.530Z,63.40
2018-07-23T16:35:36.512Z,63.40
2018-07-23T16:38:05.228Z,63.30
2018-07-23T16:40:33.876Z,62.50
2018-07-23T16:43:07.933Z,62.30
2018-07-23T16:45:37.446Z,61.90
2018-07-23T16:48:07.565Z,61.20
2018-07-23T16:50:36.132Z,60.70
2018-07-23T16:53:04.699Z,60.40
2018-07-23T16:55:33.623Z,60.20
2018-07-23T16:58:03.230Z,59.80
2018-07-23T17:00:35.844Z,59.00
2018-07-23T17:03:05.777Z,58.10
2018-07-23T17:05:34.613Z,54.90
2018-07-23T17:08:03.281Z,51.70
2018-07-23T17:10:32.062Z,49.10
2018-07-23T17:13:01.222Z,48.10
2018-07-23T17:15:30.097Z,46.70
2018-07-23T17:17:58.749Z,45.00
2018-07-23T17:20:27.313Z,43.30
2018-07-23T17:22:55.879Z,41.80
2018-07-23T17:27:53.495Z,39.20
2018-07-23T17:30:22.656Z,38.20
2018-07-23T17:32:52.329Z,37.20
2018-07-23T17:35:20.833Z,36.30
2018-07-23T17:37:50.165Z,35.60
2018-07-23T17:40:18.761Z,35.00
2018-07-23T17:42:47.351Z,34.50
2018-07-23T17:45:15.975Z,33.90
2018-07-23T17:47:44.828Z,33.50
2018-07-23T17:50:13.462Z,33.00
2018-07-23T17:52:42.036Z,32.60
2018-07-23T17:55:10.642Z,32.30
2018-07-23T17:57:39.174Z,32.10
2018-07-23T18:00:07.841Z,31.80
2018-07-23T18:02:39.207Z,31.70
2018-07-23T18:05:07.934Z,31.50
2018-07-23T18:07:36.478Z,31.30
2018-07-23T18:10:05.124Z,31.20
2018-07-23T18:12:34.344Z,31.00
2018-07-23T18:15:04.214Z,30.90
2018-07-23T18:17:32.807Z,30.80
2018-07-23T18:20:03.057Z,30.60
2018-07-23T18:22:32.205Z,30.40
2018-07-23T18:25:01.439Z,30.20
2018-07-23T18:27:29.915Z,29.90
2018-07-23T18:29:58.469Z,29.80
2018-07-23T18:32:27.061Z,29.60
2018-07-23T18:34:55.619Z,29.40
2018-07-23T18:37:24.305Z,29.20
2018-07-23T18:39:52.869Z,29.00
2018-07-23T18:42:22.473Z,28.80
2018-07-23T18:44:51.023Z,28.60
2018-07-23T18:47:19.566Z,28.50
2018-07-23T18:49:54.812Z,28.30
2018-07-23T18:52:25.585Z,28.10
2018-07-23T18:54:55.788Z,28.00
2018-07-23T18:57:25.894Z,27.80
2018-07-23T18:59:56.364Z,27.70
2018-07-23T19:02:24.923Z,27.60
2018-07-23T19:04:53.457Z,27.40
2018-07-23T19:07:22.080Z,27.30
2018-07-23T19:09:51.701Z,27.20
2018-07-23T19:12:22.739Z,27.10
2018-07-23T19:14:51.269Z,27.00
2018-07-23T19:17:19.857Z,26.80
2018-07-23T19:19:49.307Z,26.70
2018-07-23T19:22:18.727Z,26.60
2018-07-23T19:24:50.164Z,26.40
2018-07-23T19:27:18.848Z,26.30
2018-07-23T19:32:18.291Z,26.00
2018-07-23T19:34:47.003Z,25.80
2018-07-23T19:37:17.695Z,25.70
2018-07-23T19:39:47.361Z,25.50
2018-07-23T19:44:51.749Z,25.30
2018-07-23T19:47:21.152Z,25.20
2018-07-23T19:49:50.410Z,25.10
2018-07-23T19:52:20.837Z,25.00
2018-07-23T19:54:49.902Z,24.90
2018-07-23T19:57:20.101Z,24.70
2018-07-23T19:59:48.600Z,24.60
2018-07-23T20:02:18.183Z,24.50
2018-07-23T20:04:47.486Z,24.40
2018-07-23T20:07:16.429Z,24.40
2018-07-23T20:09:44.984Z,24.20
2018-07-23T20:12:13.601Z,24.20
2018-07-23T20:14:42.130Z,24.10
2018-07-23T20:17:11.301Z,24.00
2018-07-23T20:19:40.692Z,24.00
2018-07-23T20:22:10.172Z,23.90
2018-07-23T20:24:38.699Z,23.80
2018-07-23T20:27:07.887Z,23.70
2018-07-23T20:29:36.508Z,23.70
2018-07-23T20:32:05.053Z,23.60
2018-07-23T20:34:34.418Z,23.50
2018-07-23T20:37:04.082Z,23.50
2018-07-23T20:39:33.828Z,23.40
2018-07-23T20:42:02.612Z,23.30
2018-07-23T20:44:31.215Z,23.20
2018-07-23T20:47:00.640Z,23.20
2018-07-23T20:49:30.108Z,23.10
2018-07-23T20:51:58.641Z,23.00
2018-07-23T20:54:27.119Z,23.00
2018-07-23T20:56:55.618Z,22.90
2018-07-23T20:59:24.227Z,22.90
2018-07-23T21:01:52.758Z,22.80
2018-07-23T21:04:21.310Z,22.70
2018-07-23T21:06:49.902Z,22.70
2018-07-23T21:09:18.454Z,22.60
2018-07-23T21:11:46.934Z,22.60
2018-07-23T21:14:15.510Z,22.50
2018-07-23T21:16:44.912Z,22.50
2018-07-23T21:19:13.514Z,22.40
2018-07-23T21:21:42.057Z,22.40
2018-07-23T21:24:10.553Z,22.30
2018-07-23T21:29:07.338Z,22.30
2018-07-23T21:31:35.821Z,22.30
2018-07-23T21:34:04.328Z,22.30
2018-07-23T21:36:32.822Z,22.20
